Time;durP1;ratioP1;P1;durP2;ratioP2;P2;SDS_P1;SDS_P2;PMS_P1;PMS_P2;Temp;Humidity;BMP_temperature;BMP_pressure;BME280_temperature;BME280_humidity;BME280_pressure;Samples;Min_cycle;Max_cycle;Signal;HPM_P1;HPM_P2
2024/04/14 00:01:53;;;;;;;15.70;4.13;;;14.90;99.90;;;;;;5380712;26;20547;-79
2024/04/14 00:04:18;;;;;;;11.65;3.67;;;14.90;99.90;;;;;;5368805;26;20012;-79
2024/04/14 00:07:04;;;;;;;15.73;3.90;;;14.90;99.90;;;;;;5320768;26;20102;-79
2024/04/14 00:09:30;;;;;;;12.02;3.72;;;14.90;99.90;;;;;;5380665;26;20427;-79
2024/04/14 00:11:55;;;;;;;9.07;3.50;;;14.80;99.90;;;;;;5383228;26;20592;-79
2024/04/14 00:14:23;;;;;;;14.20;3.60;;;14.80;99.90;;;;;;5379176;26;20015;-79
2024/04/14 00:16:49;;;;;;;9.48;3.38;;;14.70;99.90;;;;;;5376479;26;20348;-78
2024/04/14 00:19:20;;;;;;;12.25;3.85;;;14.70;99.90;;;;;;5380819;26;20018;-78
2024/04/14 00:21:46;;;;;;;13.10;3.55;;;14.70;99.90;;;;;;5386072;26;20458;-78
2024/04/14 00:24:12;;;;;;;12.63;3.65;;;14.60;99.90;;;;;;5405132;26;20007;-78
2024/04/14 00:26:38;;;;;;;13.30;3.90;;;14.60;99.90;;;;;;5381495;26;20473;-79
2024/04/14 00:29:04;;;;;;;13.75;3.20;;;14.50;99.90;;;;;;5381898;26;20008;-79
2024/04/14 00:31:30;;;;;;;9.50;3.13;;;14.50;99.90;;;;;;5353289;26;20084;-78
2024/04/14 00:33:56;;;;;;;10.85;3.33;;;14.40;99.90;;;;;;5383590;26;20009;-78
2024/04/14 00:36:22;;;;;;;11.23;3.05;;;14.50;99.90;;;;;;5373127;26;20005;-78
2024/04/14 00:39:07;;;;;;;12.88;2.92;;;14.40;99.90;;;;;;5355325;26;20011;-78
2024/04/14 00:41:43;;;;;;;11.23;3.25;;;14.30;99.90;;;;;;5369980;26;20015;-78
2024/04/14 00:44:19;;;;;;;12.38;3.30;;;14.30;99.90;;;;;;5376251;26;20016;-78
2024/04/14 00:46:54;;;;;;;10.20;2.60;;;14.30;99.90;;;;;;5376303;26;20036;-78
2024/04/14 00:49:22;;;;;;;12.68;2.78;;;14.30;99.90;;;;;;5336491;26;20422;-78
2024/04/14 00:51:47;;;;;;;10.57;2.90;;;14.20;99.90;;;;;;5380418;26;20045;-78
2024/04/14 00:54:17;;;;;;;9.77;2.72;;;14.20;99.90;;;;;;5380607;26;20008;-78
2024/04/14 00:56:45;;;;;;;12.43;3.35;;;14.10;99.90;;;;;;5376507;26;20000;-78
2024/04/14 00:59:12;;;;;;;7.80;2.05;;;14.20;99.90;;;;;;5385825;26;20019;-78
2024/04/14 01:01:38;;;;;;;8.27;2.38;;;14.10;99.90;;;;;;5351545;26;20004;-78
2024/04/14 01:04:04;;;;;;;10.05;2.28;;;14.00;99.90;;;;;;5380825;26;20008;-78
2024/04/14 01:06:31;;;;;;;9.73;2.38;;;13.90;99.90;;;;;;5375688;26;20009;-78
2024/04/14 01:08:57;;;;;;;8.85;2.30;;;13.80;99.90;;;;;;5374366;26;20028;-78
2024/04/14 01:11:23;;;;;;;9.52;2.28;;;13.90;99.90;;;;;;5374563;26;20465;-78
2024/04/14 01:13:49;;;;;;;8.02;2.20;;;13.80;99.90;;;;;;5385059;26;20023;-78
2024/04/14 01:16:15;;;;;;;7.30;2.03;;;13.70;99.90;;;;;;5353505;26;20507;-78
2024/04/14 01:18:40;;;;;;;11.27;2.10;;;13.70;99.90;;;;;;5353836;26;20342;-79
2024/04/14 01:21:06;;;;;;;;;;;13.70;99.90;;;;;;5371854;26;20008;-79
2024/04/14 01:23:33;;;;;;;9.43;1.90;;;13.60;99.90;;;;;;5378646;26;19925;-79
2024/04/14 01:25:58;;;;;;;13.73;2.20;;;13.50;99.90;;;;;;5354725;26;20022;-79
2024/04/14 01:28:24;;;;;;;10.05;2.15;;;13.40;99.90;;;;;;5384655;26;20000;-79
2024/04/14 01:30:50;;;;;;;7.20;1.73;;;13.40;99.90;;;;;;5402303;26;19996;-79
2024/04/14 01:33:16;;;;;;;8.10;1.95;;;13.40;99.90;;;;;;5415045;26;20022;-79
2024/04/14 01:35:41;;;;;;;10.48;2.20;;;13.30;99.90;;;;;;5385121;26;20345;-79
2024/04/14 01:38:07;;;;;;;8.18;2.10;;;13.30;99.90;;;;;;5382051;26;20356;-79
2024/04/14 01:40:33;;;;;;;10.43;2.08;;;13.20;99.90;;;;;;5390956;26;20445;-79
2024/04/14 01:43:19;;;;;;;7.95;1.83;;;13.20;99.90;;;;;;5357555;26;20368;-79
2024/04/14 01:46:04;;;;;;;7.30;1.90;;;13.10;99.90;;;;;;5345877;26;20009;-79
2024/04/14 01:48:30;;;;;;;11.27;2.28;;;13.10;99.90;;;;;;5337360;26;20087;-79
2024/04/14 01:50:56;;;;;;;8.95;2.08;;;13.10;99.90;;;;;;5381449;26;20008;-79
2024/04/14 01:53:42;;;;;;;7.43;2.15;;;13.00;99.90;;;;;;5355952;26;20010;-79
2024/04/14 01:56:08;;;;;;;9.80;2.00;;;13.00;99.90;;;;;;5377990;26;20019;-79
2024/04/14 01:58:34;;;;;;;12.93;2.53;;;13.00;99.90;;;;;;5375125;26;20008;-79
2024/04/14 02:00:59;;;;;;;10.20;2.10;;;12.90;99.90;;;;;;5377405;26;20085;-79
2024/04/14 02:03:26;;;;;;;10.93;2.53;;;12.90;99.90;;;;;;5387111;26;20031;-79
2024/04/14 02:05:58;;;;;;;7.78;2.22;;;12.90;99.90;;;;;;5380185;26;20353;-79
2024/04/14 02:08:25;;;;;;;10.52;2.30;;;12.90;99.90;;;;;;5377171;26;20056;-78
2024/04/14 02:10:50;;;;;;;12.85;2.63;;;12.90;99.90;;;;;;5365109;26;20020;-78
2024/04/14 02:13:16;;;;;;;13.05;2.33;;;12.90;99.90;;;;;;5379239;26;20004;-78
2024/04/14 02:15:42;;;;;;;10.00;1.88;;;12.90;99.90;;;;;;5378268;26;20020;-78
2024/04/14 02:18:07;;;;;;;7.07;1.90;;;12.80;99.90;;;;;;5379256;26;20478;-78
2024/04/14 02:20:34;;;;;;;10.32;2.17;;;12.80;99.90;;;;;;5372863;26;20468;-78
2024/04/14 02:23:00;;;;;;;11.50;2.33;;;12.80;99.90;;;;;;5379683;26;20022;-78
2024/04/14 02:25:56;;;;;;;13.50;2.50;;;12.80;99.90;;;;;;5352524;26;20024;-78
2024/04/14 02:28:22;;;;;;;7.15;2.28;;;12.80;99.90;;;;;;5378406;26;20738;-78
2024/04/14 02:30:49;;;;;;;9.55;2.35;;;12.70;99.90;;;;;;5345406;26;20008;-78
2024/04/14 02:33:15;;;;;;;10.15;2.28;;;12.70;99.90;;;;;;5378746;26;20016;-78
2024/04/14 02:35:41;;;;;;;9.57;2.30;;;12.70;99.90;;;;;;5375296;26;20037;-78
2024/04/14 02:38:07;;;;;;;9.70;2.70;;;12.70;99.90;;;;;;5391964;26;19999;-78
2024/04/14 02:40:32;;;;;;;6.85;1.83;;;12.60;99.90;;;;;;5383338;26;20012;-78
2024/04/14 02:42:58;;;;;;;9.07;2.50;;;12.60;99.90;;;;;;5350035;26;20048;-78
2024/04/14 02:45:25;;;;;;;12.50;2.55;;;12.60;99.90;;;;;;5379422;26;20023;-78
2024/04/14 02:48:11;;;;;;;9.82;2.40;;;12.50;99.90;;;;;;5352974;26;20530;-78
2024/04/14 02:50:57;;;;;;;11.02;1.98;;;12.40;99.90;;;;;;5347782;26;20073;-78
2024/04/14 02:53:24;;;;;;;7.55;2.10;;;12.50;99.90;;;;;;5390269;26;20388;-78
2024/04/14 02:55:50;;;;;;;10.70;2.22;;;12.40;99.90;;;;;;5410236;26;20008;-78
2024/04/14 02:58:35;;;;;;;6.75;2.22;;;12.40;99.90;;;;;;5346729;26;20368;-78
2024/04/14 03:01:02;;;;;;;10.57;2.00;;;12.40;99.90;;;;;;5376124;26;19996;-78
2024/04/14 03:03:29;;;;;;;8.57;2.20;;;12.40;99.90;;;;;;5391052;26;20037;-78
2024/04/14 03:06:01;;;;;;;9.77;2.50;;;12.30;99.90;;;;;;5390977;26;20008;-78
2024/04/14 03:08:27;;;;;;;13.07;1.88;;;12.20;99.90;;;;;;5374859;26;20001;-78
2024/04/14 03:10:54;;;;;;;12.23;1.98;;;12.20;99.90;;;;;;5390904;26;20476;-78
2024/04/14 03:13:22;;;;;;;11.05;1.92;;;12.20;99.90;;;;;;5366940;26;20085;-78
2024/04/14 03:15:49;;;;;;;14.02;2.40;;;12.20;99.90;;;;;;5375944;26;20008;-78
2024/04/14 03:18:34;;;;;;;11.88;2.00;;;12.20;99.90;;;;;;5345170;26;20005;-78
2024/04/14 03:21:20;;;;;;;9.27;1.98;;;12.10;99.90;;;;;;5335226;26;20020;-78
2024/04/14 03:24:06;;;;;;;8.23;1.80;;;12.10;99.90;;;;;;5359191;26;20012;-78
2024/04/14 03:26:58;;;;;;;11.88;2.20;;;12.10;99.90;;;;;;5340988;26;20016;-78
2024/04/14 03:29:45;;;;;;;9.10;1.90;;;12.20;99.90;;;;;;5347038;26;20005;-78
2024/04/14 03:32:31;;;;;;;9.43;1.90;;;12.00;99.90;;;;;;5342364;26;20054;-77
2024/04/14 03:35:16;;;;;;;11.05;2.30;;;12.00;99.90;;;;;;5328495;26;20004;-78
2024/04/14 03:38:02;;;;;;;5.72;1.58;;;12.10;99.90;;;;;;5352406;26;20465;-78
2024/04/14 03:40:52;;;;;;;10.50;1.92;;;12.00;99.90;;;;;;5354517;26;20003;-79
2024/04/14 03:43:38;;;;;;;9.23;2.15;;;12.00;99.90;;;;;;5355631;26;20013;-79
2024/04/14 03:46:23;;;;;;;8.52;2.30;;;12.10;99.90;;;;;;5352564;26;20005;-79
2024/04/14 03:49:09;;;;;;;10.63;2.28;;;12.20;99.90;;;;;;5338677;26;20026;-78
2024/04/14 03:51:55;;;;;;;11.77;2.45;;;12.00;99.90;;;;;;5352620;26;20013;-79
2024/04/14 03:54:41;;;;;;;11.55;2.63;;;12.00;99.90;;;;;;5346531;26;20461;-79
2024/04/14 03:57:26;;;;;;;10.07;2.03;;;12.00;99.90;;;;;;5350817;26;20012;-78
2024/04/14 04:00:12;;;;;;;10.43;2.10;;;12.10;99.90;;;;;;5367810;26;20004;-78
2024/04/14 04:02:58;;;;;;;9.77;2.17;;;12.00;99.90;;;;;;5347811;26;20011;-78
2024/04/14 04:05:55;;;;;;;9.50;2.53;;;11.90;99.90;;;;;;5326377;26;20004;-78
2024/04/14 04:08:40;;;;;;;11.25;2.65;;;11.90;99.90;;;;;;5362355;26;20012;-78
2024/04/14 04:11:26;;;;;;;10.10;1.63;;;11.80;99.90;;;;;;5365243;26;20036;-78
2024/04/14 04:14:12;;;;;;;8.23;1.63;;;11.80;99.90;;;;;;5353798;26;20000;-77
2024/04/14 04:16:57;;;;;;;8.77;1.92;;;11.80;99.90;;;;;;5334896;26;19999;-77
2024/04/14 04:19:43;;;;;;;9.88;2.10;;;11.70;99.90;;;;;;5349218;26;20158;-77
2024/04/14 04:22:29;;;;;;;6.00;1.63;;;11.70;99.90;;;;;;5354668;26;20004;-77
2024/04/14 04:25:14;;;;;;;7.13;1.60;;;11.60;99.90;;;;;;5352294;26;20004;-77
2024/04/14 04:28:00;;;;;;;8.85;1.60;;;11.60;99.90;;;;;;5355566;26;20004;-77
2024/04/14 04:30:46;;;;;;;7.97;1.80;;;11.60;99.90;;;;;;5355110;26;20011;-77
2024/04/14 04:33:11;;;;;;;9.30;1.80;;;11.50;99.90;;;;;;5409103;26;20475;-77
2024/04/14 04:35:37;;;;;;;9.40;2.28;;;11.50;99.90;;;;;;5381405;26;20008;-77
2024/04/14 04:38:03;;;;;;;9.55;2.30;;;11.50;99.90;;;;;;5349220;26;20465;-77
2024/04/14 04:40:29;;;;;;;8.80;1.70;;;11.50;99.90;;;;;;5380362;26;20019;-77
2024/04/14 04:42:55;;;;;;;7.80;1.88;;;11.50;99.90;;;;;;5381845;26;20085;-77
2024/04/14 04:45:20;;;;;;;11.18;1.73;;;11.50;99.90;;;;;;5380004;26;20008;-77
2024/04/14 04:47:46;;;;;;;8.95;1.73;;;11.50;99.90;;;;;;5382640;26;20522;-77
2024/04/14 04:50:12;;;;;;;12.15;1.85;;;11.50;99.90;;;;;;5410636;26;20003;-77
2024/04/14 04:52:38;;;;;;;7.63;1.92;;;11.50;99.90;;;;;;5386333;26;20016;-77
2024/04/14 04:55:04;;;;;;;8.25;1.75;;;11.50;99.90;;;;;;5373835;26;20009;-77
2024/04/14 04:57:29;;;;;;;13.40;1.75;;;11.40;99.90;;;;;;5374536;26;20016;-77
2024/04/14 04:59:55;;;;;;;8.40;1.83;;;11.40;99.90;;;;;;5343553;26;20004;-77
2024/04/14 05:02:23;;;;;;;6.90;1.73;;;11.40;99.90;;;;;;5386792;26;20328;-77
2024/04/14 05:04:55;;;;;;;11.60;1.90;;;11.40;99.90;;;;;;5361692;26;20007;-77
2024/04/14 05:07:28;;;;;;;8.45;1.42;;;11.40;99.90;;;;;;5378099;26;20012;-77
2024/04/14 05:09:54;;;;;;;9.13;1.77;;;11.40;99.90;;;;;;5402510;26;20008;-77
2024/04/14 05:12:20;;;;;;;10.55;1.70;;;11.40;99.90;;;;;;5397053;26;20016;-77
2024/04/14 05:14:46;;;;;;;9.02;1.75;;;11.40;99.90;;;;;;5378872;26;20027;-77
2024/04/14 05:17:12;;;;;;;8.00;1.50;;;11.30;99.90;;;;;;5377997;26;20047;-77
2024/04/14 05:19:37;;;;;;;9.50;2.03;;;11.30;99.90;;;;;;5379203;26;19996;-77
2024/04/14 05:22:03;;;;;;;10.10;1.90;;;11.40;99.90;;;;;;5393252;26;20453;-77
2024/04/14 05:24:29;;;;;;;6.32;1.58;;;11.30;99.90;;;;;;5395261;26;20046;-77
2024/04/14 05:26:54;;;;;;;7.43;1.55;;;11.40;99.90;;;;;;5389537;26;20015;-78
2024/04/14 05:29:20;;;;;;;6.22;1.60;;;11.40;99.90;;;;;;5394260;26;20456;-78
2024/04/14 05:31:46;;;;;;;12.38;2.25;;;11.40;99.90;;;;;;5360269;26;20012;-78
2024/04/14 05:34:12;;;;;;;7.40;1.63;;;11.40;99.90;;;;;;5397991;26;20415;-78
2024/04/14 05:36:38;;;;;;;8.57;1.55;;;11.30;99.90;;;;;;5395064;26;20380;-78
2024/04/14 05:39:04;;;;;;;6.88;1.88;;;11.40;99.90;;;;;;5372805;26;20051;-78
2024/04/14 05:41:30;;;;;;;9.50;1.85;;;11.50;99.90;;;;;;5349675;26;20023;-77
2024/04/14 05:43:56;;;;;;;8.60;2.00;;;11.40;99.90;;;;;;5378254;26;20040;-77
2024/04/14 05:46:21;;;;;;;7.70;1.77;;;11.40;99.90;;;;;;5374074;26;20019;-77
2024/04/14 05:48:48;;;;;;;8.38;1.90;;;11.40;99.90;;;;;;5375968;26;20016;-77
2024/04/14 05:51:14;;;;;;;7.65;1.73;;;11.40;99.90;;;;;;5373080;26;20008;-77
2024/04/14 05:53:41;;;;;;;7.63;1.70;;;11.50;99.90;;;;;;5381739;26;20041;-77
2024/04/14 05:56:07;;;;;;;6.97;1.80;;;11.50;99.90;;;;;;5400485;26;20037;-77
2024/04/14 05:58:32;;;;;;;12.25;1.80;;;11.50;99.90;;;;;;5366569;26;20017;-77
2024/04/14 06:01:05;;;;;;;8.32;1.50;;;11.50;99.90;;;;;;5370480;26;20008;-78
2024/04/14 06:03:32;;;;;;;7.72;1.52;;;11.50;99.90;;;;;;5370138;26;20336;-78
2024/04/14 06:05:57;;;;;;;11.90;1.75;;;11.50;99.90;;;;;;5383040;26;20019;-78
2024/04/14 06:08:24;;;;;;;12.38;2.25;;;11.50;99.90;;;;;;5379718;26;20027;-78
2024/04/14 06:10:50;;;;;;;8.88;1.83;;;11.50;99.90;;;;;;5374296;26;20009;-77
2024/04/14 06:13:15;;;;;;;11.60;1.80;;;11.60;99.90;;;;;;5379405;26;20023;-77
2024/04/14 06:15:41;;;;;;;8.02;1.77;;;11.60;99.90;;;;;;5369729;26;20008;-77
2024/04/14 06:18:07;;;;;;;8.35;1.80;;;11.50;99.90;;;;;;5388757;26;20015;-77
2024/04/14 06:20:34;;;;;;;11.02;2.67;;;11.50;99.90;;;;;;5385887;26;20009;-77
2024/04/14 06:23:01;;;;;;;7.18;1.52;;;11.50;99.90;;;;;;5375730;26;20081;-77
2024/04/14 06:25:27;;;;;;;8.52;1.70;;;11.50;99.90;;;;;;5374854;26;20052;-77
2024/04/14 06:27:52;;;;;;;8.10;1.75;;;11.60;99.90;;;;;;5372943;26;20019;-77
2024/04/14 06:30:18;;;;;;;8.55;1.75;;;11.60;99.90;;;;;;5369686;26;20008;-77
2024/04/14 06:32:44;;;;;;;8.48;1.58;;;11.60;99.90;;;;;;5373460;26;20457;-77
2024/04/14 06:35:09;;;;;;;8.27;2.10;;;11.70;99.90;;;;;;5383711;26;20057;-77
2024/04/14 06:37:35;;;;;;;8.13;1.67;;;11.60;99.90;;;;;;5376216;26;20016;-77
2024/04/14 06:40:01;;;;;;;11.35;2.33;;;11.50;99.90;;;;;;5345970;26;20008;-77
2024/04/14 06:42:27;;;;;;;10.82;1.85;;;11.60;99.90;;;;;;5382276;26;19996;-77
2024/04/14 06:44:53;;;;;;;7.65;1.90;;;11.60;99.90;;;;;;5388233;26;20419;-77
2024/04/14 06:47:18;;;;;;;9.48;1.75;;;11.60;99.90;;;;;;5385297;26;20103;-77
2024/04/14 06:49:44;;;;;;;6.60;1.50;;;11.60;99.90;;;;;;5390038;26;20008;-77
2024/04/14 06:52:10;;;;;;;8.73;1.50;;;11.70;99.90;;;;;;5374275;26;20008;-77
2024/04/14 06:54:36;;;;;;;8.30;1.35;;;11.70;99.90;;;;;;5348668;26;20008;-78
2024/04/14 06:57:02;;;;;;;6.93;1.35;;;11.90;99.90;;;;;;5379702;26;20000;-78
2024/04/14 06:59:28;;;;;;;5.57;1.40;;;11.70;99.90;;;;;;5358106;26;20051;-78
2024/04/14 07:01:56;;;;;;;9.50;1.80;;;11.80;99.90;;;;;;5348385;26;20471;-78
2024/04/14 07:04:22;;;;;;;6.22;1.23;;;11.80;99.90;;;;;;5380064;26;20019;-77
2024/04/14 07:06:48;;;;;;;8.25;1.23;;;11.70;99.90;;;;;;5379342;26;20008;-77
2024/04/14 07:09:15;;;;;;;9.85;1.95;;;11.80;99.90;;;;;;5378591;26;20008;-78
2024/04/14 07:11:41;;;;;;;6.30;1.35;;;11.70;99.90;;;;;;5391522;26;20356;-78
2024/04/14 07:14:07;;;;;;;12.25;1.83;;;11.70;99.90;;;;;;5383224;26;20020;-78
2024/04/14 07:16:32;;;;;;;8.35;1.88;;;11.80;99.90;;;;;;5365666;26;20015;-78
2024/04/14 07:18:58;;;;;;;9.65;1.65;;;11.80;99.90;;;;;;5389453;26;19996;-78
2024/04/14 07:21:24;;;;;;;10.30;1.67;;;11.80;99.90;;;;;;5380239;26;20388;-78
2024/04/14 07:23:49;;;;;;;9.52;1.77;;;11.80;99.90;;;;;;5384633;26;19996;-79
2024/04/14 07:26:15;;;;;;;7.03;1.40;;;11.80;99.90;;;;;;5386667;26;19996;-78
2024/04/14 07:28:41;;;;;;;7.43;1.50;;;11.80;99.90;;;;;;5384994;26;20704;-78
2024/04/14 07:31:07;;;;;;;10.32;1.80;;;11.80;99.90;;;;;;5372818;26;20380;-78
2024/04/14 07:33:35;;;;;;;10.70;1.63;;;11.70;99.90;;;;;;5347155;26;20008;-78
2024/04/14 07:36:01;;;;;;;7.68;1.60;;;11.70;99.90;;;;;;5377959;26;20082;-78
2024/04/14 07:38:26;;;;;;;7.05;1.40;;;11.70;99.90;;;;;;5377152;26;20005;-78
2024/04/14 07:40:52;;;;;;;5.20;1.48;;;11.70;99.90;;;;;;5383691;26;20004;-78
2024/04/14 07:43:18;;;;;;;11.73;1.95;;;11.70;99.90;;;;;;5382998;26;20432;-77
2024/04/14 07:45:44;;;;;;;8.48;1.40;;;11.70;99.90;;;;;;5381211;26;20052;-77
2024/04/14 07:48:10;;;;;;;8.00;1.58;;;11.60;99.90;;;;;;5368006;26;20005;-77
2024/04/14 07:50:41;;;;;;;9.00;1.45;;;11.60;99.90;;;;;;5373832;26;20367;-77
2024/04/14 07:53:07;;;;;;;7.28;1.63;;;11.70;99.90;;;;;;5376835;26;20008;-77
2024/04/14 07:55:32;;;;;;;9.07;1.75;;;11.70;99.90;;;;;;5380584;26;20000;-77
2024/04/14 07:57:58;;;;;;;8.05;1.52;;;11.70;99.90;;;;;;5390660;26;20012;-77
2024/04/14 08:00:24;;;;;;;7.97;1.45;;;11.70;99.90;;;;;;5383165;26;20328;-77
2024/04/14 08:02:50;;;;;;;5.75;1.30;;;11.70;99.90;;;;;;5389209;26;20008;-77
2024/04/14 08:05:15;;;;;;;7.72;1.55;;;11.70;99.90;;;;;;5344251;26;20355;-77
2024/04/14 08:07:41;;;;;;;8.45;1.60;;;11.80;99.90;;;;;;5382107;26;20453;-77
2024/04/14 08:10:07;;;;;;;5.95;1.30;;;11.80;99.90;;;;;;5395046;26;20026;-77
2024/04/14 08:12:33;;;;;;;8.23;1.55;;;11.80;99.90;;;;;;5371368;26;20012;-77
2024/04/14 08:14:59;;;;;;;8.32;1.67;;;11.90;99.90;;;;;;5345679;26;20352;-77
2024/04/14 08:17:25;;;;;;;5.80;1.30;;;11.90;99.90;;;;;;5383217;26;20001;-77
2024/04/14 08:19:52;;;;;;;5.93;1.38;;;12.00;99.90;;;;;;5389351;26;20052;-77
2024/04/14 08:22:17;;;;;;;9.38;1.80;;;12.00;99.90;;;;;;5370309;26;20012;-77
2024/04/14 08:24:43;;;;;;;11.07;1.95;;;12.20;99.90;;;;;;5362549;26;20082;-78
2024/04/14 08:27:09;;;;;;;9.32;1.95;;;12.10;99.90;;;;;;5360456;26;20032;-78
2024/04/14 08:29:34;;;;;;;8.55;1.55;;;12.30;99.90;;;;;;5343132;26;20060;-78
2024/04/14 08:32:00;;;;;;;11.80;2.20;;;12.30;99.90;;;;;;5361445;26;20024;-78
2024/04/14 08:34:26;;;;;;;9.93;2.03;;;12.40;99.90;;;;;;5358217;26;20130;-78
2024/04/14 08:36:52;;;;;;;9.82;2.10;;;12.50;99.90;;;;;;5355643;26;20016;-78
2024/04/14 08:39:18;;;;;;;13.73;2.13;;;12.50;99.90;;;;;;5362018;26;20020;-78
2024/04/14 08:41:45;;;;;;;7.38;1.95;;;12.60;99.90;;;;;;5365568;26;20051;-80
2024/04/14 08:44:13;;;;;;;8.15;1.70;;;12.50;99.90;;;;;;5373945;26;20010;-79
2024/04/14 08:46:45;;;;;;;7.30;1.63;;;12.60;99.90;;;;;;5368167;26;20023;-79
2024/04/14 08:49:12;;;;;;;11.02;1.77;;;12.50;99.90;;;;;;5355915;26;20334;-78
2024/04/14 08:51:38;;;;;;;9.55;2.30;;;12.50;99.90;;;;;;5391784;26;20008;-78
2024/04/14 08:54:04;;;;;;;9.32;1.80;;;12.60;99.90;;;;;;5343281;26;20008;-78
2024/04/14 08:56:31;;;;;;;6.50;1.40;;;12.70;99.90;;;;;;5380728;26;20012;-78
2024/04/14 08:59:01;;;;;;;7.90;2.05;;;12.90;99.90;;;;;;5394243;26;20000;-78
2024/04/14 09:01:27;;;;;;;7.22;1.80;;;13.00;99.90;;;;;;5384151;26;20070;-77
2024/04/14 09:03:53;;;;;;;4.82;1.50;;;13.10;99.90;;;;;;5365773;26;20008;-78
2024/04/14 09:06:20;;;;;;;7.70;1.67;;;13.30;99.90;;;;;;5374145;26;20008;-78
2024/04/14 09:08:45;;;;;;;8.80;1.55;;;13.20;99.90;;;;;;5374510;26;20442;-78
2024/04/14 09:11:12;;;;;;;6.95;1.80;;;13.20;99.90;;;;;;5372741;26;20008;-78
2024/04/14 09:13:37;;;;;;;7.40;1.58;;;13.40;99.90;;;;;;5403058;26;22076;-79
2024/04/14 09:16:04;;;;;;;8.73;1.40;;;13.40;99.90;;;;;;5383674;26;20008;-79
2024/04/14 09:18:30;;;;;;;5.43;1.30;;;13.40;99.90;;;;;;5385016;26;20009;-79
2024/04/14 09:20:56;;;;;;;7.90;1.50;;;13.50;99.90;;;;;;5388010;26;20084;-79
2024/04/14 09:23:22;;;;;;;7.85;1.95;;;13.60;99.90;;;;;;5393870;26;20040;-79
2024/04/14 09:25:50;;;;;;;7.13;1.80;;;13.90;99.90;;;;;;5394810;26;20023;-79
2024/04/14 09:28:16;;;;;;;6.53;1.55;;;14.10;99.90;;;;;;5379545;26;20076;-78
2024/04/14 09:30:42;;;;;;;8.57;1.60;;;14.40;99.90;;;;;;5386321;26;20012;-79
2024/04/14 09:33:08;;;;;;;5.20;1.50;;;14.50;99.90;;;;;;5381645;26;20024;-80
2024/04/14 09:35:34;;;;;;;6.50;1.80;;;14.60;99.90;;;;;;5397874;26;20048;-79
2024/04/14 09:38:00;;;;;;;4.18;1.40;;;14.70;99.90;;;;;;5390459;26;20332;-79
2024/04/14 09:40:26;;;;;;;6.13;1.70;;;14.80;99.90;;;;;;5386640;26;20012;-80
2024/04/14 09:42:57;;;;;;;8.55;2.03;;;14.70;99.90;;;;;;5373297;26;20016;-79
2024/04/14 09:45:25;;;;;;;7.70;1.80;;;14.70;99.90;;;;;;5374581;26;20049;-79
2024/04/14 09:47:53;;;;;;;10.70;1.70;;;14.70;99.90;;;;;;5369380;26;20459;-79
2024/04/14 09:50:25;;;;;;;9.38;1.92;;;14.60;99.90;;;;;;5374387;26;20008;-79
2024/04/14 09:52:52;;;;;;;6.18;2.03;;;14.40;99.90;;;;;;5376747;26;20011;-79
2024/04/14 09:55:20;;;;;;;7.93;2.03;;;14.20;99.90;;;;;;5377270;26;20023;-79
2024/04/14 09:57:47;;;;;;;11.20;1.80;;;14.00;99.90;;;;;;5378452;26;20031;-79
2024/04/14 10:00:13;;;;;;;9.35;1.80;;;13.90;99.90;;;;;;5378283;26;20045;-79
2024/04/14 10:02:44;;;;;;;7.90;2.20;;;13.90;99.90;;;;;;5375897;26;20000;-79
2024/04/14 10:05:11;;;;;;;9.10;2.10;;;13.70;99.90;;;;;;5392960;26;20009;-79
2024/04/14 10:07:37;;;;;;;7.55;2.13;;;13.70;99.90;;;;;;5382959;26;20008;-79
2024/04/14 10:10:06;;;;;;;10.38;2.03;;;13.60;99.90;;;;;;5396894;26;20039;-79
2024/04/14 10:12:33;;;;;;;8.15;1.70;;;13.50;99.90;;;;;;5380527;26;20408;-79
2024/04/14 10:15:03;;;;;;;7.30;1.85;;;13.50;99.90;;;;;;5363043;26;20015;-78
2024/04/14 10:17:29;;;;;;;10.00;2.22;;;13.80;99.90;;;;;;5373489;26;20027;-78
2024/04/14 10:19:56;;;;;;;7.95;2.05;;;14.10;99.90;;;;;;5394211;26;20008;-78
2024/04/14 10:22:31;;;;;;;8.50;1.55;;;14.40;99.90;;;;;;5399245;26;20008;-77
2024/04/14 10:24:57;;;;;;;8.52;1.73;;;14.80;99.90;;;;;;5380249;26;20008;-78
2024/04/14 10:27:23;;;;;;;6.38;1.40;;;15.10;99.90;;;;;;5388479;26;20082;-78
2024/04/14 10:30:00;;;;;;;5.72;1.30;;;15.40;99.90;;;;;;5383330;26;20018;-78
2024/04/14 10:32:26;;;;;;;8.93;1.63;;;15.20;99.90;;;;;;5376599;26;20008;-77
2024/04/14 10:34:52;;;;;;;3.58;1.20;;;14.90;99.90;;;;;;5383184;26;20415;-78
2024/04/14 10:37:22;;;;;;;6.50;1.70;;;14.80;99.90;;;;;;5368367;26;20036;-78
2024/04/14 10:39:50;;;;;;;5.88;1.63;;;14.90;99.90;;;;;;5399661;26;20491;-78
2024/04/14 10:42:17;;;;;;;4.97;1.40;;;15.00;99.90;;;;;;5384729;26;20014;-77
2024/04/14 10:44:43;;;;;;;6.00;1.45;;;15.30;99.10;;;;;;5393051;26;20009;-78
2024/04/14 10:47:19;;;;;;;8.25;1.58;;;15.50;99.10;;;;;;5350597;26;20020;-77
2024/04/14 10:49:49;;;;;;;7.32;1.77;;;15.70;98.40;;;;;;5386973;26;20000;-77
2024/04/14 10:52:16;;;;;;;6.93;1.40;;;15.80;98.10;;;;;;5392213;26;20015;-78
2024/04/14 10:54:42;;;;;;;9.60;1.67;;;16.00;98.20;;;;;;5390554;26;20550;-77
2024/04/14 10:57:11;;;;;;;6.30;1.33;;;16.00;97.40;;;;;;5393565;26;20098;-77
2024/04/14 10:59:37;;;;;;;4.07;1.48;;;15.90;97.00;;;;;;5374969;26;20346;-77
2024/04/14 11:02:04;;;;;;;6.53;1.40;;;15.90;96.80;;;;;;5390324;26;20014;-78
2024/04/14 11:04:32;;;;;;;4.13;1.17;;;15.70;96.70;;;;;;5391048;26;20519;-77
2024/04/14 11:06:59;;;;;;;6.50;1.45;;;15.60;96.10;;;;;;5380208;26;20345;-77
2024/04/14 11:09:26;;;;;;;8.05;1.50;;;15.60;96.30;;;;;;5384371;26;20059;-77
2024/04/14 11:11:52;;;;;;;5.80;1.77;;;15.70;96.80;;;;;;5382372;26;20012;-77
2024/04/14 11:14:21;;;;;;;5.60;1.33;;;15.60;97.30;;;;;;5384070;26;20035;-77
2024/04/14 11:16:50;;;;;;;5.22;1.23;;;15.40;96.80;;;;;;5372075;26;20015;-77
2024/04/14 11:19:15;;;;;;;6.25;1.45;;;15.30;97.20;;;;;;5383790;26;20008;-77
2024/04/14 11:21:41;;;;;;;8.02;1.60;;;15.20;97.70;;;;;;5398958;26;20008;-77
2024/04/14 11:24:10;;;;;;;4.32;1.60;;;15.20;97.80;;;;;;5380962;26;20000;-77
2024/04/14 11:26:40;;;;;;;6.97;1.88;;;15.20;97.80;;;;;;5382263;26;20012;-77
2024/04/14 11:29:06;;;;;;;6.55;1.50;;;15.20;97.90;;;;;;5379223;26;20016;-77
2024/04/14 11:31:36;;;;;;;6.03;1.60;;;15.50;98.50;;;;;;5377885;26;20016;-77
2024/04/14 11:34:01;;;;;;;7.60;1.50;;;15.80;98.40;;;;;;5378979;26;20345;-79
2024/04/14 11:36:34;;;;;;;5.93;1.58;;;16.20;98.10;;;;;;5382526;26;20073;-77
2024/04/14 11:39:04;;;;;;;5.40;1.70;;;16.40;97.80;;;;;;5389339;26;20092;-77
2024/04/14 11:41:30;;;;;;;5.07;1.55;;;16.40;97.20;;;;;;5395487;26;20022;-77
2024/04/14 11:43:56;;;;;;;7.47;1.60;;;16.10;96.80;;;;;;5376612;26;21332;-77
2024/04/14 11:46:22;;;;;;;5.53;1.45;;;15.80;96.80;;;;;;5372714;26;20008;-77
2024/04/14 11:48:48;;;;;;;5.85;1.65;;;15.50;96.90;;;;;;5377948;26;20015;-78
2024/04/14 11:51:14;;;;;;;5.68;1.45;;;15.30;96.70;;;;;;5389469;26;20040;-77
2024/04/14 11:53:39;;;;;;;6.65;1.67;;;15.10;96.70;;;;;;5376317;26;20476;-77
2024/04/14 11:56:06;;;;;;;6.47;1.50;;;15.00;97.00;;;;;;5372864;26;20008;-79
2024/04/14 11:58:31;;;;;;;8.73;1.70;;;15.00;97.40;;;;;;5368669;26;20437;-75
2024/04/14 12:00:57;;;;;;;7.13;1.98;;;15.10;97.80;;;;;;5373811;26;20058;-76
2024/04/14 12:03:23;;;;;;;7.68;1.77;;;15.40;97.60;;;;;;5394608;26;20145;-75
2024/04/14 12:05:50;;;;;;;7.65;1.98;;;15.80;97.60;;;;;;5399455;26;20036;-75
2024/04/14 12:08:16;;;;;;;7.00;2.00;;;16.00;97.30;;;;;;5395423;26;20008;-76
2024/04/14 12:10:42;;;;;;;7.55;1.85;;;15.90;96.20;;;;;;5391016;26;20008;-75
2024/04/14 12:13:09;;;;;;;6.82;1.63;;;15.80;96.50;;;;;;5388004;26;20360;-76
2024/04/14 12:15:36;;;;;;;6.10;1.50;;;15.70;96.80;;;;;;5372293;26;20012;-76
2024/04/14 12:18:02;;;;;;;6.00;1.80;;;15.80;97.10;;;;;;5345730;26;20023;-76
2024/04/14 12:20:28;;;;;;;6.47;1.83;;;16.00;97.40;;;;;;5378232;26;20074;-75
2024/04/14 12:22:54;;;;;;;7.28;1.77;;;16.00;97.00;;;;;;5382258;26;20004;-76
2024/04/14 12:25:20;;;;;;;7.40;1.35;;;16.10;97.20;;;;;;5373726;26;20051;-76
2024/04/14 12:27:46;;;;;;;7.10;1.60;;;16.00;96.80;;;;;;5379351;26;20004;-76
2024/04/14 12:30:12;;;;;;;7.03;1.60;;;16.20;97.50;;;;;;5393403;26;20351;-76
2024/04/14 12:32:38;;;;;;;8.05;1.65;;;16.50;97.40;;;;;;5379822;26;20023;-76
2024/04/14 12:35:05;;;;;;;6.13;1.52;;;16.60;96.90;;;;;;5373370;26;20000;-76
2024/04/14 12:37:31;;;;;;;7.68;1.80;;;16.70;95.90;;;;;;5376361;26;20008;-76
2024/04/14 12:39:57;;;;;;;8.18;1.30;;;16.80;95.90;;;;;;5379738;26;20012;-76
2024/04/14 12:42:23;;;;;;;6.63;1.63;;;16.80;95.60;;;;;;5374106;26;20445;-77
2024/04/14 12:44:49;;;;;;;6.68;1.73;;;17.10;94.90;;;;;;5378952;26;20000;-76
2024/04/14 12:47:14;;;;;;;4.80;1.40;;;17.20;94.10;;;;;;5403824;26;20018;-76
2024/04/14 12:49:40;;;;;;;8.10;1.77;;;17.20;93.60;;;;;;5383760;26;20472;-76
2024/04/14 12:52:06;;;;;;;9.95;1.73;;;17.30;93.50;;;;;;5381258;26;20476;-77
2024/04/14 12:54:32;;;;;;;7.20;1.55;;;17.30;93.10;;;;;;5375089;26;20000;-77